Time;durP1;ratioP1;P1;durP2;ratioP2;P2;SDS_P1;SDS_P2;PMS_P1;PMS_P2;Temp;Humidity;BMP_temperature;BMP_pressure;BME280_temperature;BME280_humidity;BME280_pressure;Samples;Min_cycle;Max_cycle;Signal;HPM_P1;HPM_P2
2022/10/02 00:01:36;;;;;;;16.52;3.30;;;;;;;;;;4978612;28;88844;-74
2022/10/02 00:04:03;;;;;;;14.75;3.42;;;;;;;;;;4986492;28;88652;-74
2022/10/02 00:06:34;;;;;;;16.75;3.50;;;;;;;;;;4999374;28;90625;-74
2022/10/02 00:09:02;;;;;;;31.30;4.70;;;;;;;;;;5001073;28;89269;-74
2022/10/02 00:11:38;;;;;;;15.02;3.55;;;;;;;;;;4998513;28;89851;-74
2022/10/02 00:14:08;;;;;;;18.48;3.88;;;;;;;;;;4999003;28;87533;-74
2022/10/02 00:16:36;;;;;;;18.45;4.00;;;;;;;;;;4998024;28;87960;-74
2022/10/02 00:19:03;;;;;;;24.05;3.00;;;;;;;;;;4998390;28;89761;-74
2022/10/02 00:21:39;;;;;;;19.75;3.28;;;;;;;;;;4998443;28;88943;-74
2022/10/02 00:24:07;;;;;;;24.63;4.75;;;;;;;;;;4997339;28;89692;-75
2022/10/02 00:26:37;;;;;;;38.95;5.35;;;;;;;;;;4998861;28;89700;-74
2022/10/02 00:29:19;;;;;;;14.27;3.80;;;;;;;;;;4997773;28;88812;-75
2022/10/02 00:31:54;;;;;;;17.00;3.28;;;;;;;;;;5001710;28;89320;-75
2022/10/02 00:34:21;;;;;;;22.38;4.45;;;;;;;;;;4998185;28;88933;-75
2022/10/02 00:36:47;;;;;;;15.52;3.40;;;;;;;;;;4998567;28;88719;-76
2022/10/02 00:39:16;;;;;;;30.63;4.53;;;;;;;;;;4999016;28;88403;-75
2022/10/02 00:41:45;;;;;;;19.50;4.10;;;;;;;;;;4998613;28;88864;-76
2022/10/02 00:44:30;;;;;;;20.70;4.38;;;;;;;;;;4997231;28;89530;-75
2022/10/02 00:47:15;;;;;;;27.67;3.72;;;;;;;;;;4997951;28;89884;-76
2022/10/02 00:50:00;;;;;;;13.18;3.65;;;;;;;;;;4998254;28;88008;-75
2022/10/02 00:52:29;;;;;;;26.83;3.80;;;;;;;;;;4997825;28;89571;-76
2022/10/02 00:55:14;;;;;;;22.98;4.70;;;;;;;;;;5001338;28;89557;-75
2022/10/02 00:57:58;;;;;;;19.55;3.72;;;;;;;;;;5011275;28;88850;-75
2022/10/02 01:00:25;;;;;;;27.65;3.70;;;;;;;;;;5018194;28;89742;-75
2022/10/02 01:03:07;;;;;;;24.23;3.70;;;;;;;;;;5009590;28;88668;-75
2022/10/02 01:05:34;;;;;;;26.35;4.38;;;;;;;;;;4997974;28;88759;-75
2022/10/02 01:08:01;;;;;;;25.17;3.75;;;;;;;;;;4997890;28;88951;-75
2022/10/02 01:10:27;;;;;;;26.17;4.53;;;;;;;;;;4996960;28;88960;-75
2022/10/02 01:12:54;;;;;;;19.05;3.75;;;;;;;;;;4996516;28;89756;-75
2022/10/02 01:15:22;;;;;;;21.63;3.50;;;;;;;;;;4998735;28;90319;-75
2022/10/02 01:17:50;;;;;;;21.67;3.90;;;;;;;;;;5000961;28;88584;-75
2022/10/02 01:20:20;;;;;;;31.48;4.80;;;;;;;;;;4996539;28;89673;-75
2022/10/02 01:22:49;;;;;;;31.77;4.75;;;;;;;;;;4997360;28;88518;-75
2022/10/02 01:25:15;;;;;;;21.05;4.15;;;;;;;;;;4997722;28;89629;-75
2022/10/02 01:27:42;;;;;;;14.63;3.58;;;;;;;;;;4997266;28;90009;-75
2022/10/02 01:30:10;;;;;;;22.63;4.05;;;;;;;;;;4998753;28;87656;-75
2022/10/02 01:32:41;;;;;;;30.17;4.90;;;;;;;;;;5017264;28;88825;-75
2022/10/02 01:35:07;;;;;;;24.63;4.18;;;;;;;;;;5017786;28;89808;-75
2022/10/02 01:37:36;;;;;;;23.35;4.60;;;;;;;;;;5017180;28;88836;-75
2022/10/02 01:40:08;;;;;;;25.83;4.25;;;;;;;;;;5019787;28;89877;-75
2022/10/02 01:42:36;;;;;;;23.15;4.60;;;;;;;;;;5017773;28;88096;-74
2022/10/02 01:45:04;;;;;;;20.95;5.28;;;;;;;;;;4999797;28;87948;-75
2022/10/02 01:47:35;;;;;;;27.15;4.85;;;;;;;;;;4997464;28;89619;-74
2022/10/02 01:50:26;;;;;;;22.00;4.72;;;;;;;;;;4997410;28;88696;-75
2022/10/02 01:53:06;;;;;;;23.65;5.00;;;;;;;;;;4997779;28;89831;-74
2022/10/02 01:55:51;;;;;;;20.15;4.80;;;;;;;;;;4997423;28;88951;-74
2022/10/02 01:58:23;;;;;;;29.48;5.57;;;;;;;;;;4997204;28;88726;-74
2022/10/02 02:01:04;;;;;;;30.60;5.32;;;;;;;;;;4999914;28;88357;-74
2022/10/02 02:03:37;;;;;;;27.85;5.90;;;;;;;;;;4995274;28;89984;-74
2022/10/02 02:06:21;;;;;;;31.63;7.03;;;;;;;;;;4998658;28;90292;-75
2022/10/02 02:09:09;;;;;;;28.23;6.60;;;;;;;;;;4996900;28;90057;-75
2022/10/02 02:11:39;;;;;;;26.58;6.35;;;;;;;;;;4997366;28;88890;-75
2022/10/02 02:14:11;;;;;;;28.40;6.47;;;;;;;;;;4997286;28;89664;-75
2022/10/02 02:16:43;;;;;;;42.15;8.02;;;;;;;;;;4996760;28;89828;-75
2022/10/02 02:19:30;;;;;;;26.27;6.78;;;;;;;;;;4996820;28;88531;-75
2022/10/02 02:22:01;;;;;;;34.65;6.30;;;;;;;;;;5005912;28;89568;-75
2022/10/02 02:24:36;;;;;;;28.40;6.63;;;;;;;;;;5023674;28;89609;-75
2022/10/02 02:27:03;;;;;;;38.92;8.25;;;;;;;;;;5020701;28;88659;-75
2022/10/02 02:29:32;;;;;;;36.90;8.40;;;;;;;;;;5019505;28;89799;-74
2022/10/02 02:31:59;;;;;;;42.60;7.53;;;;;;;;;;5020212;28;88001;-75
2022/10/02 02:34:32;;;;;;;36.15;7.75;;;;;;;;;;5000409;28;90184;-75
2022/10/02 02:37:05;;;;;;;45.83;8.27;;;;;;;;;;4999505;28;88863;-74
2022/10/02 02:39:38;;;;;;;37.65;7.68;;;;;;;;;;5012894;28;88901;-74
2022/10/02 02:42:06;;;;;;;43.85;8.50;;;;;;;;;;5020262;28;89219;-74
2022/10/02 02:44:37;;;;;;;42.28;9.00;;;;;;;;;;5019517;28;89965;-74
2022/10/02 02:47:10;;;;;;;50.55;10.30;;;;;;;;;;5023645;28;87621;-74
2022/10/02 02:49:39;;;;;;;38.15;8.02;;;;;;;;;;5019496;28;89660;-74
2022/10/02 02:52:09;;;;;;;43.42;8.48;;;;;;;;;;5019204;28;91077;-75
2022/10/02 02:54:37;;;;;;;30.17;7.10;;;;;;;;;;5019784;28;88976;-74
2022/10/02 02:57:04;;;;;;;36.95;8.27;;;;;;;;;;5018161;28;89639;-74
2022/10/02 02:59:31;;;;;;;43.30;7.82;;;;;;;;;;5020178;28;88634;-75
2022/10/02 03:01:57;;;;;;;39.63;8.93;;;;;;;;;;4999447;28;88311;-75
2022/10/02 03:04:25;;;;;;;42.22;7.95;;;;;;;;;;4999059;28;88708;-74
2022/10/02 03:06:56;;;;;;;37.40;7.90;;;;;;;;;;5000051;28;88624;-74
2022/10/02 03:09:22;;;;;;;45.63;8.48;;;;;;;;;;5002889;28;90743;-74
2022/10/02 03:11:57;;;;;;;46.30;7.43;;;;;;;;;;4999614;28;88941;-74
2022/10/02 03:14:39;;;;;;;41.30;7.85;;;;;;;;;;5000768;28;87921;-75
2022/10/02 03:17:08;;;;;;;37.13;7.68;;;;;;;;;;4999534;28;90051;-75
2022/10/02 03:19:49;;;;;;;36.65;7.35;;;;;;;;;;4998549;28;88801;-75
2022/10/02 03:22:20;;;;;;;45.78;7.80;;;;;;;;;;4999002;28;90122;-75
2022/10/02 03:24:49;;;;;;;53.10;7.93;;;;;;;;;;4999840;28;89672;-74
2022/10/02 03:27:48;;;;;;;39.17;7.18;;;;;;;;;;4998764;28;89336;-74
2022/10/02 03:30:19;;;;;;;33.85;6.80;;;;;;;;;;4975665;28;88116;-74
2022/10/02 03:32:46;;;;;;;45.08;6.82;;;;;;;;;;5001027;28;91608;-73
2022/10/02 03:35:13;;;;;;;42.92;7.18;;;;;;;;;;4998940;28;88653;-76
2022/10/02 03:37:42;;;;;;;23.63;5.85;;;;;;;;;;4980178;28;88122;-75
2022/10/02 03:40:08;;;;;;;40.50;6.28;;;;;;;;;;4978623;28;88695;-75
2022/10/02 03:42:35;;;;;;;32.60;6.07;;;;;;;;;;4979451;28;90405;-75
2022/10/02 03:45:02;;;;;;;39.58;7.53;;;;;;;;;;4978579;28;90327;-75
2022/10/02 03:47:29;;;;;;;30.15;6.13;;;;;;;;;;4992433;28;88112;-74
2022/10/02 03:49:55;;;;;;;44.40;6.97;;;;;;;;;;4999378;28;89587;-74
2022/10/02 03:52:22;;;;;;;35.55;6.25;;;;;;;;;;4999347;28;89971;-74
2022/10/02 03:54:52;;;;;;;39.33;7.55;;;;;;;;;;5001629;28;88008;-74
2022/10/02 03:57:20;;;;;;;42.55;6.80;;;;;;;;;;4999171;28;89708;-74
2022/10/02 03:59:55;;;;;;;35.30;6.15;;;;;;;;;;4999418;28;87980;-74
2022/10/02 04:02:30;;;;;;;32.13;6.00;;;;;;;;;;4998544;28;89659;-74
2022/10/02 04:05:02;;;;;;;41.25;6.20;;;;;;;;;;4999353;28;89431;-74
2022/10/02 04:07:35;;;;;;;35.55;6.80;;;;;;;;;;4998365;28;89244;-74
2022/10/02 04:10:01;;;;;;;37.47;6.95;;;;;;;;;;4998634;28;89603;-74
2022/10/02 04:12:31;;;;;;;41.28;6.25;;;;;;;;;;4999271;28;89720;-74
2022/10/02 04:15:05;;;;;;;29.05;5.47;;;;;;;;;;5000525;28;88948;-74
2022/10/02 04:17:42;;;;;;;37.83;6.50;;;;;;;;;;4998852;28;89828;-74
2022/10/02 04:20:13;;;;;;;45.95;6.03;;;;;;;;;;4999649;28;88140;-74
2022/10/02 04:22:41;;;;;;;36.58;6.30;;;;;;;;;;5017811;28;89226;-74
2022/10/02 04:25:18;;;;;;;35.60;5.78;;;;;;;;;;5018509;28;89632;-74
2022/10/02 04:28:03;;;;;;;52.05;7.00;;;;;;;;;;5019451;28;88528;-74
2022/10/02 04:30:30;;;;;;;38.38;6.57;;;;;;;;;;5017826;28;88041;-74
2022/10/02 04:33:09;;;;;;;41.78;6.32;;;;;;;;;;5005633;28;88877;-74
2022/10/02 04:35:47;;;;;;;41.17;6.45;;;;;;;;;;4997604;28;88736;-74
2022/10/02 04:38:32;;;;;;;46.88;7.07;;;;;;;;;;5001651;28;90486;-74
2022/10/02 04:41:11;;;;;;;57.90;6.55;;;;;;;;;;4998170;28;88401;-74
2022/10/02 04:43:56;;;;;;;34.80;6.20;;;;;;;;;;4997122;28;88367;-75
2022/10/02 04:46:49;;;;;;;37.08;6.38;;;;;;;;;;4998635;28;90080;-75
2022/10/02 04:49:24;;;;;;;32.78;6.32;;;;;;;;;;4998067;28;88076;-75
2022/10/02 04:51:56;;;;;;;34.47;6.53;;;;;;;;;;4998322;28;88964;-75
2022/10/02 04:54:49;;;;;;;48.25;6.22;;;;;;;;;;4999390;28;89041;-75
2022/10/02 04:57:18;;;;;;;45.85;5.97;;;;;;;;;;4981296;28;88838;-75
2022/10/02 04:59:47;;;;;;;46.22;6.93;;;;;;;;;;4997985;28;88389;-75
2022/10/02 05:02:32;;;;;;;42.00;7.85;;;;;;;;;;4999976;28;92214;-75
2022/10/02 05:05:12;;;;;;;36.60;7.13;;;;;;;;;;4996969;28;90540;-75
2022/10/02 05:07:47;;;;;;;38.38;5.78;;;;;;;;;;4998371;28;88592;-75
2022/10/02 05:10:19;;;;;;;36.15;6.15;;;;;;;;;;4997630;28;88120;-75
2022/10/02 05:13:06;;;;;;;46.50;6.53;;;;;;;;;;5011634;28;89761;-75
2022/10/02 05:16:01;;;;;;;28.85;5.57;;;;;;;;;;4996257;28;91102;-75
2022/10/02 05:18:28;;;;;;;27.13;5.60;;;;;;;;;;4979027;28;88504;-75
2022/10/02 05:21:13;;;;;;;29.58;5.47;;;;;;;;;;5018321;28;88681;-74
2022/10/02 05:23:56;;;;;;;36.40;6.07;;;;;;;;;;5017545;28;89027;-75
2022/10/02 05:26:41;;;;;;;36.63;5.80;;;;;;;;;;5020231;28;89069;-75
2022/10/02 05:29:26;;;;;;;40.97;5.60;;;;;;;;;;5015993;28;90435;-75
2022/10/02 05:31:52;;;;;;;40.35;5.63;;;;;;;;;;5010971;28;88062;-75
2022/10/02 05:34:48;;;;;;;40.60;5.40;;;;;;;;;;4997403;28;89610;-75
2022/10/02 05:37:26;;;;;;;39.85;5.45;;;;;;;;;;4987929;28;90035;-75
2022/10/02 05:39:53;;;;;;;24.63;5.22;;;;;;;;;;4996875;28;88720;-76
2022/10/02 05:42:19;;;;;;;36.78;5.30;;;;;;;;;;4997513;28;89821;-74
2022/10/02 05:44:51;;;;;;;29.95;5.70;;;;;;;;;;4997765;28;89710;-74
2022/10/02 05:47:20;;;;;;;25.08;4.85;;;;;;;;;;4997454;28;88719;-74
2022/10/02 05:49:50;;;;;;;35.35;6.15;;;;;;;;;;5000678;28;87912;-74
2022/10/02 05:52:36;;;;;;;28.75;4.88;;;;;;;;;;4997480;28;88703;-75
2022/10/02 05:55:21;;;;;;;43.83;5.50;;;;;;;;;;4997208;28;89471;-75
2022/10/02 05:57:50;;;;;;;28.25;5.28;;;;;;;;;;5001132;28;89637;-75
2022/10/02 06:00:31;;;;;;;32.80;4.65;;;;;;;;;;4999748;28;88312;-75
2022/10/02 06:02:57;;;;;;;26.98;5.22;;;;;;;;;;4996839;28;89697;-75
2022/10/02 06:05:33;;;;;;;29.65;4.43;;;;;;;;;;4998389;28;88792;-75
2022/10/02 06:08:01;;;;;;;20.98;4.38;;;;;;;;;;4999152;28;88839;-75
2022/10/02 06:10:30;;;;;;;24.50;4.53;;;;;;;;;;4997771;28;89769;-75
2022/10/02 06:13:01;;;;;;;22.65;4.20;;;;;;;;;;5001587;28;89825;-75
2022/10/02 06:15:35;;;;;;;31.33;4.25;;;;;;;;;;4999692;28;88911;-75
2022/10/02 06:18:03;;;;;;;25.38;4.90;;;;;;;;;;5000617;28;88853;-75
2022/10/02 06:20:36;;;;;;;22.92;4.18;;;;;;;;;;5000269;28;88733;-75
2022/10/02 06:23:04;;;;;;;19.73;3.63;;;;;;;;;;4999392;28;90209;-75
2022/10/02 06:25:39;;;;;;;28.73;4.15;;;;;;;;;;4999506;28;89850;-75
2022/10/02 06:28:20;;;;;;;26.60;4.80;;;;;;;;;;4998109;28;88445;-75
2022/10/02 06:30:49;;;;;;;22.98;4.95;;;;;;;;;;4993187;28;90207;-75
2022/10/02 06:33:21;;;;;;;18.83;3.78;;;;;;;;;;4998325;28;89730;-75
2022/10/02 06:36:03;;;;;;;23.38;4.97;;;;;;;;;;4999670;28;89718;-75
2022/10/02 06:38:41;;;;;;;22.27;4.53;;;;;;;;;;5001040;28;88961;-74
2022/10/02 06:41:14;;;;;;;27.15;4.72;;;;;;;;;;4999085;28;88632;-74
2022/10/02 06:43:53;;;;;;;20.00;3.80;;;;;;;;;;4998966;28;88748;-74
2022/10/02 06:46:36;;;;;;;24.90;4.80;;;;;;;;;;4996808;28;90627;-75
2022/10/02 06:49:03;;;;;;;31.88;4.90;;;;;;;;;;4998082;28;88621;-75
2022/10/02 06:51:48;;;;;;;26.35;5.28;;;;;;;;;;4998233;28;91510;-74
2022/10/02 06:54:18;;;;;;;28.10;4.30;;;;;;;;;;4988582;28;89663;-74
2022/10/02 06:56:52;;;;;;;31.95;5.55;;;;;;;;;;4997051;28;88602;-76
2022/10/02 06:59:28;;;;;;;27.27;5.60;;;;;;;;;;4998585;28;89883;-77
2022/10/02 07:01:55;;;;;;;22.58;3.92;;;;;;;;;;4999734;28;89062;-75
2022/10/02 07:04:24;;;;;;;25.08;5.28;;;;;;;;;;4998555;28;89597;-75
2022/10/02 07:07:19;;;;;;;20.88;3.78;;;;;;;;;;4998495;28;89575;-76
2022/10/02 07:09:48;;;;;;;28.48;5.05;;;;;;;;;;4998392;28;88201;-75
2022/10/02 07:12:42;;;;;;;23.27;5.30;;;;;;;;;;5016782;28;88833;-76
2022/10/02 07:15:27;;;;;;;28.55;4.35;;;;;;;;;;5019423;28;89976;-76
2022/10/02 07:17:54;;;;;;;31.65;4.65;;;;;;;;;;5002324;28;88714;-75
2022/10/02 07:20:28;;;;;;;26.33;4.75;;;;;;;;;;5002518;28;89634;-75
2022/10/02 07:23:00;;;;;;;29.60;5.63;;;;;;;;;;4999732;28;89006;-75
2022/10/02 07:25:45;;;;;;;20.85;3.72;;;;;;;;;;4998609;28;89126;-75
2022/10/02 07:28:18;;;;;;;29.73;3.85;;;;;;;;;;4996848;28;94123;-74
2022/10/02 07:30:44;;;;;;;;;;;;;;;;;;4997897;28;91639;-75
2022/10/02 07:33:18;;;;;;;27.05;4.30;;;;;;;;;;4995627;28;122254;-74
2022/10/02 07:35:45;;;;;;;26.00;4.03;;;;;;;;;;4996698;28;94201;-75
2022/10/02 07:38:42;;;;;;;25.20;3.80;;;;;;;;;;4994144;28;95791;-75
2022/10/02 07:41:08;;;;;;;25.45;3.75;;;;;;;;;;4996300;28;96628;-74
2022/10/02 07:43:44;;;;;;;30.08;4.05;;;;;;;;;;4999357;28;94583;-74
2022/10/02 07:46:37;;;;;;;30.20;4.30;;;;;;;;;;4993089;28;94275;-74
2022/10/02 07:49:21;;;;;;;19.40;3.50;;;;;;;;;;4966907;28;93290;-74
2022/10/02 07:51:55;;;;;;;21.38;4.47;;;;;;;;;;4994235;28;93002;-74
2022/10/02 07:54:25;;;;;;;28.98;4.28;;;;;;;;;;4991542;28;94004;-74
2022/10/02 07:56:52;;;;;;;33.47;4.00;;;;;;;;;;4994223;28;92761;-75
2022/10/02 07:59:19;;;;;;;25.77;4.72;;;;;;;;;;4994264;28;92462;-74
2022/10/02 08:01:47;;;;;;;21.85;3.88;;;;;;;;;;4993097;28;94119;-75
2022/10/02 08:04:21;;;;;;;22.48;3.88;;;;;;;;;;4992806;28;96560;-74
2022/10/02 08:06:58;;;;;;;22.55;4.45;;;;;;;;;;4995861;28;93943;-75
2022/10/02 08:09:27;;;;;;;24.48;4.25;;;;;;;;;;4993977;28;94636;-75
2022/10/02 08:11:57;;;;;;;22.13;3.72;;;;;;;;;;4992810;28;92442;-77
2022/10/02 08:14:28;;;;;;;19.60;4.47;;;;;;;;;;4994221;28;92483;-74
2022/10/02 08:16:56;;;;;;;26.58;4.13;;;;;;;;;;4994300;28;93531;-77
2022/10/02 08:19:25;;;;;;;22.58;4.15;;;;;;;;;;4993002;28;94633;-76
2022/10/02 08:21:56;;;;;;;20.33;4.72;;;;;;;;;;4994456;28;94143;-75
2022/10/02 08:24:44;;;;;;;17.65;3.70;;;;;;;;;;4993659;28;93391;-76
2022/10/02 08:27:14;;;;;;;23.15;4.20;;;;;;;;;;4987356;28;94148;-77
2022/10/02 08:29:43;;;;;;;22.38;5.03;;;;;;;;;;4995492;28;94958;-76
2022/10/02 08:32:12;;;;;;;20.55;4.57;;;;;;;;;;4993554;28;92514;-77
2022/10/02 08:34:40;;;;;;;15.15;3.60;;;;;;;;;;4995002;28;93262;-76
2022/10/02 08:37:25;;;;;;;19.70;3.88;;;;;;;;;;4990904;28;93658;-76
2022/10/02 08:40:21;;;;;;;18.30;4.78;;;;;;;;;;4990470;28;93174;-79
2022/10/02 08:42:56;;;;;;;19.95;3.67;;;;;;;;;;4958192;28;94765;-74
2022/10/02 08:45:34;;;;;;;22.10;3.25;;;;;;;;;;4995270;28;94107;-74
2022/10/02 08:48:22;;;;;;;17.33;3.42;;;;;;;;;;4990210;28;92758;-75
2022/10/02 08:51:14;;;;;;;21.75;3.53;;;;;;;;;;4978942;28;93275;-75
2022/10/02 08:53:53;;;;;;;17.08;3.38;;;;;;;;;;4995477;28;92584;-75
2022/10/02 08:56:28;;;;;;;20.90;4.43;;;;;;;;;;4993210;28;94736;-75
2022/10/02 08:59:13;;;;;;;23.15;4.85;;;;;;;;;;4994624;28;94596;-75
2022/10/02 09:01:58;;;;;;;27.98;4.07;;;;;;;;;;4995170;28;92448;-75
2022/10/02 09:04:39;;;;;;;18.17;3.35;;;;;;;;;;4994512;28;94168;-75
2022/10/02 09:07:05;;;;;;;17.75;4.20;;;;;;;;;;4994933;28;94112;-75
2022/10/02 09:09:50;;;;;;;19.33;3.58;;;;;;;;;;4994664;28;92914;-75
2022/10/02 09:12:44;;;;;;;17.50;3.78;;;;;;;;;;4995097;28;94089;-75
2022/10/02 09:15:17;;;;;;;15.68;3.75;;;;;;;;;;4998419;28;93420;-75
2022/10/02 09:17:51;;;;;;;20.45;4.82;;;;;;;;;;4994172;28;93119;-74
2022/10/02 09:20:18;;;;;;;21.75;3.85;;;;;;;;;;4992271;28;93202;-74
2022/10/02 09:22:46;;;;;;;18.98;3.90;;;;;;;;;;4993195;28;94855;-74
2022/10/02 09:25:31;;;;;;;19.80;3.60;;;;;;;;;;4993976;28;96290;-74
2022/10/02 09:28:13;;;;;;;20.10;4.38;;;;;;;;;;4994722;28;94465;-74
2022/10/02 09:30:42;;;;;;;17.27;3.28;;;;;;;;;;4990063;28;92579;-74
2022/10/02 09:33:27;;;;;;;20.63;3.38;;;;;;;;;;4975081;28;94475;-74
2022/10/02 09:36:13;;;;;;;20.02;3.72;;;;;;;;;;4975001;28;94628;-74
2022/10/02 09:38:54;;;;;;;19.05;3.58;;;;;;;;;;4977374;28;92742;-74
2022/10/02 09:41:40;;;;;;;21.15;3.45;;;;;;;;;;4975145;28;94258;-74
2022/10/02 09:44:13;;;;;;;21.98;3.58;;;;;;;;;;4975301;28;92386;-74
2022/10/02 09:46:58;;;;;;;24.25;4.82;;;;;;;;;;4974323;28;93945;-74
2022/10/02 09:49:31;;;;;;;25.25;3.58;;;;;;;;;;4991827;28;96452;-74
2022/10/02 09:52:00;;;;;;;9.80;3.05;;;;;;;;;;4994144;28;92550;-74
2022/10/02 09:54:43;;;;;;;20.17;3.75;;;;;;;;;;5010039;28;95839;-74
2022/10/02 09:57:31;;;;;;;21.35;3.92;;;;;;;;;;5009797;28;95828;-74
2022/10/02 10:00:13;;;;;;;18.73;3.42;;;;;;;;;;4993619;28;92474;-75
2022/10/02 10:02:51;;;;;;;17.00;3.70;;;;;;;;;;4994768;28;92965;-74
2022/10/02 10:05:49;;;;;;;19.75;3.58;;;;;;;;;;4994384;28;92407;-74
2022/10/02 10:08:34;;;;;;;15.60;3.03;;;;;;;;;;4994697;28;92860;-74
2022/10/02 10:11:29;;;;;;;16.15;3.75;;;;;;;;;;4994373;28;94200;-74
2022/10/02 10:14:04;;;;;;;14.45;2.88;;;;;;;;;;4993691;28;92447;-74
2022/10/02 10:16:52;;;;;;;16.95;3.92;;;;;;;;;;4991942;28;94885;-74
2022/10/02 10:19:32;;;;;;;14.52;3.30;;;;;;;;;;4993921;28;95857;-74
2022/10/02 10:22:18;;;;;;;14.07;3.58;;;;;;;;;;4993574;28;92327;-74
2022/10/02 10:25:06;;;;;;;12.65;2.67;;;;;;;;;;4994350;28;93858;-74
2022/10/02 10:27:37;;;;;;;16.80;2.90;;;;;;;;;;4996482;28;94248;-74
2022/10/02 10:30:03;;;;;;;14.23;3.75;;;;;;;;;;4993735;28;93068;-74
2022/10/02 10:33:02;;;;;;;15.55;3.15;;;;;;;;;;4993912;28;94404;-74
2022/10/02 10:35:47;;;;;;;9.13;3.03;;;;;;;;;;4971069;28;92268;-74
2022/10/02 10:38:33;;;;;;;9.82;2.35;;;;;;;;;;4994201;28;92347;-74
2022/10/02 10:41:03;;;;;;;18.58;4.10;;;;;;;;;;4993229;28;92967;-74
2022/10/02 10:43:50;;;;;;;13.80;3.30;;;;;;;;;;4994767;28;94756;-74
2022/10/02 10:46:28;;;;;;;12.30;3.15;;;;;;;;;;4996887;28;96252;-74
2022/10/02 10:49:13;;;;;;;8.50;2.60;;;;;;;;;;4996493;28;94156;-74
2022/10/02 10:51:58;;;;;;;10.07;2.45;;;;;;;;;;4999615;28;92295;-74
2022/10/02 10:54:43;;;;;;;15.65;3.13;;;;;;;;;;4997136;28;92556;-74
2022/10/02 10:57:16;;;;;;;14.60;3.50;;;;;;;;;;4996393;28;92346;-74
2022/10/02 10:59:49;;;;;;;10.80;2.53;;;;;;;;;;4997407;28;93949;-74
2022/10/02 11:02:34;;;;;;;15.95;3.25;;;;;;;;;;4996281;28;92303;-74
2022/10/02 11:05:01;;;;;;;11.30;3.03;;;;;;;;;;4997442;28;92974;-74
2022/10/02 11:07:43;;;;;;;14.48;2.88;;;;;;;;;;4997238;28;93893;-74
2022/10/02 11:10:21;;;;;;;12.03;3.00;;;;;;;;;;4994157;28;96502;-75
2022/10/02 11:13:03;;;;;;;19.25;3.38;;;;;;;;;;4998717;28;95235;-75
2022/10/02 11:15:58;;;;;;;16.05;3.08;;;;;;;;;;4988741;28;93556;-74
2022/10/02 11:18:29;;;;;;;20.98;3.90;;;;;;;;;;4976782;28;92274;-74
2022/10/02 11:20:56;;;;;;;13.85;3.53;;;;;;;;;;4995181;28;93872;-75
2022/10/02 11:23:22;;;;;;;16.92;4.07;;;;;;;;;;4995791;28;93391;-74
2022/10/02 11:26:09;;;;;;;10.43;3.65;;;;;;;;;;4996754;28;92471;-74
2022/10/02 11:28:38;;;;;;;15.18;3.47;;;;;;;;;;4997464;28;93041;-74
2022/10/02 11:31:18;;;;;;;18.35;3.38;;;;;;;;;;4988559;28;94360;-74
2022/10/02 11:33:53;;;;;;;15.25;4.10;;;;;;;;;;4976923;28;92423;-75
2022/10/02 11:36:40;;;;;;;19.10;4.15;;;;;;;;;;4977872;28;94693;-75
2022/10/02 11:39:23;;;;;;;20.17;4.55;;;;;;;;;;4975396;28;92347;-75
2022/10/02 11:42:04;;;;;;;17.05;3.65;;;;;;;;;;4976858;28;93119;-74
2022/10/02 11:44:50;;;;;;;12.82;3.33;;;;;;;;;;4975804;28;93474;-75
2022/10/02 11:47:26;;;;;;;13.50;3.25;;;;;;;;;;4976137;28;93172;-75
2022/10/02 11:50:03;;;;;;;21.23;3.55;;;;;;;;;;4976941;28;93854;-74
2022/10/02 11:52:51;;;;;;;19.83;4.65;;;;;;;;;;4980450;28;93186;-74
2022/10/02 11:55:36;;;;;;;20.38;3.97;;;;;;;;;;4977766;28;91670;-75
2022/10/02 11:58:06;;;;;;;15.55;3.50;;;;;;;;;;4976119;28;93471;-74
2022/10/02 12:00:32;;;;;;;16.73;3.70;;;;;;;;;;4994179;28;94051;-75
2022/10/02 12:03:00;;;;;;;19.83;4.30;;;;;;;;;;4989217;28;95214;-74
2022/10/02 12:05:43;;;;;;;21.73;4.20;;;;;;;;;;4992614;28;94447;-75
2022/10/02 12:08:17;;;;;;;13.93;3.20;;;;;;;;;;4990743;28;92901;-74
2022/10/02 12:10:48;;;;;;;23.83;3.97;;;;;;;;;;4993972;28;94485;-74
2022/10/02 12:13:18;;;;;;;13.13;2.97;;;;;;;;;;4990417;28;94211;-74
2022/10/02 12:16:03;;;;;;;17.08;3.28;;;;;;;;;;4993916;28;92462;-73
2022/10/02 12:18:30;;;;;;;8.98;3.35;;;;;;;;;;4993915;28;93828;-73
2022/10/02 12:27:08;;;;;;;8.68;3.05;;;;;;;;;;4993354;28;94185;-74
2022/10/02 12:29:39;;;;;;;7.32;2.65;;;;;;;;;;4991067;28;94946;-73
2022/10/02 12:32:22;;;;;;;10.32;2.72;;;;;;;;;;4992050;28;96243;-73
2022/10/02 12:34:57;;;;;;;12.52;2.33;;;;;;;;;;4991843;28;93982;-73
2022/10/02 12:37:30;;;;;;;18.38;2.83;;;;;;;;;;4992129;28;92469;-73
2022/10/02 12:39:56;;;;;;;11.63;2.63;;;;;;;;;;4978377;28;93061;-73
2022/10/02 12:42:25;;;;;;;11.02;2.63;;;;;;;;;;4991500;28;94158;-72
2022/10/02 12:44:56;;;;;;;9.35;2.58;;;;;;;;;;4994772;28;92447;-74
2022/10/02 12:47:45;;;;;;;8.50;2.65;;;;;;;;;;4995807;28;93375;-74
2022/10/02 12:50:20;;;;;;;9.43;2.60;;;;;;;;;;4995292;28;92333;-74
2022/10/02 12:53:05;;;;;;;13.45;2.75;;;;;;;;;;4993626;28;93418;-74
2022/10/02 12:55:55;;;;;;;14.45;3.20;;;;;;;;;;4988926;28;96512;-73
2022/10/02 12:58:32;;;;;;;8.73;2.38;;;;;;;;;;4994193;28;92440;-74
2022/10/02 13:01:17;;;;;;;10.63;1.88;;;;;;;;;;4990453;28;93779;-73
2022/10/02 13:03:46;;;;;;;17.02;3.10;;;;;;;;;;4993791;28;93999;-73
2022/10/02 13:06:28;;;;;;;12.18;3.47;;;;;;;;;;4983538;28;94824;-74
2022/10/02 13:09:01;;;;;;;13.85;1.95;;;;;;;;;;4994215;28;94264;-73
2022/10/02 13:11:28;;;;;;;12.15;3.05;;;;;;;;;;4992066;28;92411;-73
2022/10/02 13:14:15;;;;;;;6.78;2.30;;;;;;;;;;4992033;28;91980;-73
2022/10/02 13:16:47;;;;;;;15.77;3.22;;;;;;;;;;4988470;28;93129;-73
2022/10/02 13:19:14;;;;;;;;;;;;;;;;;;4993961;28;93672;-72
2022/10/02 13:21:46;;;;;;;12.73;3.72;;;;;;;;;;4992414;28;95682;-74
2022/10/02 13:24:13;;;;;;;11.05;2.70;;;;;;;;;;4992325;28;93929;-74
2022/10/02 13:26:52;;;;;;;14.93;2.85;;;;;;;;;;4993020;28;93260;-74
2022/10/02 13:29:18;;;;;;;17.90;3.33;;;;;;;;;;4992860;28;94249;-74
2022/10/02 13:31:52;;;;;;;15.38;2.92;;;;;;;;;;4996230;28;93544;-73
2022/10/02 13:34:31;;;;;;;13.45;3.25;;;;;;;;;;4993034;28;94013;-73
2022/10/02 13:37:10;;;;;;;20.33;3.47;;;;;;;;;;4993628;28;93056;-73
2022/10/02 13:39:36;;;;;;;21.50;3.63;;;;;;;;;;4990346;28;93034;-73
2022/10/02 13:42:06;;;;;;;17.20;3.45;;;;;;;;;;4994383;28;93172;-73
2022/10/02 13:44:41;;;;;;;13.23;3.13;;;;;;;;;;4991266;28;94880;-73
2022/10/02 13:47:13;;;;;;;16.20;3.38;;;;;;;;;;4987317;28;94835;-73
2022/10/02 13:49:42;;;;;;;18.30;3.88;;;;;;;;;;4992393;28;95583;-73
2022/10/02 13:52:27;;;;;;;9.73;2.53;;;;;;;;;;4993304;28;93518;-73
2022/10/02 13:55:06;;;;;;;11.43;2.63;;;;;;;;;;4994130;28;92505;-73
2022/10/02 13:57:43;;;;;;;10.30;2.97;;;;;;;;;;4994735;28;93227;-74
2022/10/02 14:00:28;;;;;;;17.08;3.45;;;;;;;;;;4985039;28;93105;-73
2022/10/02 14:03:00;;;;;;;12.07;2.63;;;;;;;;;;4991164;28;93258;-73
2022/10/02 14:05:48;;;;;;;7.70;2.05;;;;;;;;;;4992079;28;93345;-73
2022/10/02 14:08:28;;;;;;;11.77;3.45;;;;;;;;;;5007778;28;92701;-73
2022/10/02 14:10:55;;;;;;;10.73;2.58;;;;;;;;;;4974875;28;93785;-73
2022/10/02 14:13:30;;;;;;;11.38;2.95;;;;;;;;;;4984994;28;95973;-73
2022/10/02 14:16:06;;;;;;;14.60;3.35;;;;;;;;;;4994722;28;93563;-73
2022/10/02 14:18:46;;;;;;;12.93;2.55;;;;;;;;;;4994951;28;94438;-73
2022/10/02 14:21:34;;;;;;;14.07;2.92;;;;;;;;;;4995535;28;92498;-73
2022/10/02 14:24:03;;;;;;;12.38;2.60;;;;;;;;;;4995574;28;93076;-73
2022/10/02 14:26:38;;;;;;;8.52;2.72;;;;;;;;;;4996932;28;93247;-73
2022/10/02 14:29:24;;;;;;;6.28;2.13;;;;;;;;;;4994675;28;93070;-75
2022/10/02 14:32:09;;;;;;;19.73;3.35;;;;;;;;;;4996278;28;93881;-74
2022/10/02 14:34:44;;;;;;;10.02;2.80;;;;;;;;;;4996865;28;93735;-73
2022/10/02 14:37:22;;;;;;;12.25;3.28;;;;;;;;;;4993710;28;92446;-75
2022/10/02 14:39:49;;;;;;;12.48;3.30;;;;;;;;;;4993546;28;94809;-73
2022/10/02 14:42:21;;;;;;;12.93;3.35;;;;;;;;;;4998576;28;94202;-77
2022/10/02 14:45:06;;;;;;;8.73;2.70;;;;;;;;;;4994241;28;93835;-74
2022/10/02 14:47:52;;;;;;;9.55;3.42;;;;;;;;;;4996565;28;94282;-73
2022/10/02 14:50:38;;;;;;;12.82;2.55;;;;;;;;;;4997078;28;92431;-73
2022/10/02 14:53:04;;;;;;;11.02;2.72;;;;;;;;;;4997172;28;93970;-73
2022/10/02 14:55:37;;;;;;;15.82;3.55;;;;;;;;;;4996465;28;93484;-74
2022/10/02 14:58:19;;;;;;;9.50;2.88;;;;;;;;;;4997664;28;91732;-73
2022/10/02 15:00:52;;;;;;;14.02;3.40;;;;;;;;;;4997482;28;93266;-73
2022/10/02 15:03:37;;;;;;;13.52;2.97;;;;;;;;;;4996172;28;94098;-73
2022/10/02 15:06:22;;;;;;;11.77;3.08;;;;;;;;;;4998387;28;94895;-74
2022/10/02 15:08:54;;;;;;;11.18;3.15;;;;;;;;;;4995811;28;94248;-73
2022/10/02 15:11:47;;;;;;;10.65;2.78;;;;;;;;;;4995687;28;92450;-73
2022/10/02 15:14:20;;;;;;;23.85;4.75;;;;;;;;;;5005597;28;92904;-73
2022/10/02 15:19:43;;;;;;;13.50;3.53;;;;;;;;;;4997829;28;92478;-73
2022/10/02 15:22:20;;;;;;;9.30;2.20;;;;;;;;;;4996743;28;94119;-74
2022/10/02 15:24:52;;;;;;;15.90;3.30;;;;;;;;;;4997413;28;93320;-73
2022/10/02 15:27:23;;;;;;;10.10;2.60;;;;;;;;;;4999617;28;92440;-73
2022/10/02 15:29:52;;;;;;;12.68;3.20;;;;;;;;;;4975719;28;93636;-74